Time;durP1;ratioP1;P1;durP2;ratioP2;P2;SDS_P1;SDS_P2;PMS_P1;PMS_P2;Temp;Humidity;BMP_temperature;BMP_pressure;BME280_temperature;BME280_humidity;BME280_pressure;Samples;Min_cycle;Max_cycle;Signal;HPM_P1;HPM_P2
2023/07/29 00:02:08;;;;;;;5.80;5.40;;;17.20;93.30;;;;;;5036444;28;20473;-79
2023/07/29 00:04:35;;;;;;;5.67;5.17;;;17.00;93.40;;;;;;5036027;28;20540;-79
2023/07/29 00:07:05;;;;;;;6.23;5.63;;;17.10;93.60;;;;;;5041571;28;20502;-80
2023/07/29 00:09:32;;;;;;;6.53;5.87;;;17.00;93.70;;;;;;5037228;28;20470;-78
2023/07/29 00:11:59;;;;;;;7.03;6.40;;;16.90;93.80;;;;;;5039159;28;20472;-77
2023/07/29 00:14:26;;;;;;;10.47;7.03;;;16.90;94.00;;;;;;5042573;28;20446;-78
2023/07/29 00:16:53;;;;;;;6.53;5.93;;;16.90;94.10;;;;;;5018399;28;20404;-79
2023/07/29 00:19:23;;;;;;;6.93;6.33;;;16.90;94.10;;;;;;5033734;28;20437;-79
2023/07/29 00:21:50;;;;;;;6.43;5.70;;;17.00;94.20;;;;;;5035502;28;20448;-78
2023/07/29 00:24:17;;;;;;;11.67;6.90;;;17.00;94.30;;;;;;5035643;28;20442;-78
2023/07/29 00:26:44;;;;;;;6.93;6.23;;;16.70;94.30;;;;;;5038266;28;20450;-76
2023/07/29 00:29:13;;;;;;;7.77;6.60;;;16.80;94.20;;;;;;5039009;28;20674;-79
2023/07/29 00:31:40;;;;;;;6.80;6.10;;;16.70;94.10;;;;;;5039046;28;20468;-80
2023/07/29 00:34:07;;;;;;;7.40;6.73;;;16.70;94.50;;;;;;5030755;28;20438;-80
2023/07/29 00:36:35;;;;;;;7.83;7.20;;;16.70;94.50;;;;;;5043465;28;20446;-76
2023/07/29 00:39:03;;;;;;;9.70;6.40;;;16.70;94.60;;;;;;5037295;28;20476;-80
2023/07/29 00:41:30;;;;;;;7.47;6.90;;;16.60;94.50;;;;;;5041777;28;20513;-78
2023/07/29 00:43:57;;;;;;;7.23;6.63;;;16.70;94.60;;;;;;5043260;28;20505;-77
2023/07/29 00:46:24;;;;;;;8.00;6.23;;;16.50;94.60;;;;;;5036623;28;20643;-78
2023/07/29 00:48:52;;;;;;;7.67;7.03;;;16.60;94.70;;;;;;5045490;28;20887;-80
2023/07/29 00:51:19;;;;;;;8.10;6.00;;;16.60;94.80;;;;;;5035698;28;20456;-80
2023/07/29 00:53:46;;;;;;;7.00;6.40;;;16.60;94.90;;;;;;5031950;28;20521;-78
2023/07/29 00:56:13;;;;;;;7.80;7.20;;;16.60;95.00;;;;;;5036469;28;20536;-79
2023/07/29 00:58:40;;;;;;;6.83;6.43;;;16.60;95.00;;;;;;5046165;28;20441;-80
2023/07/29 01:01:07;;;;;;;8.40;7.80;;;16.50;95.20;;;;;;5036964;28;20491;-77
2023/07/29 01:03:35;;;;;;;8.13;7.50;;;16.60;95.20;;;;;;5034970;28;20463;-78
2023/07/29 01:06:07;;;;;;;8.33;7.60;;;16.30;95.20;;;;;;5039642;28;21009;-78
2023/07/29 01:08:55;;;;;;;8.33;7.50;;;16.40;95.30;;;;;;5040885;28;20441;-77
2023/07/29 01:11:25;;;;;;;7.57;6.83;;;16.40;95.20;;;;;;5043996;28;20508;-78
2023/07/29 01:14:03;;;;;;;7.07;6.47;;;16.40;95.50;;;;;;5057335;28;20512;-80
2023/07/29 01:16:42;;;;;;;7.47;6.87;;;16.40;95.30;;;;;;5045885;28;20429;-78
2023/07/29 01:19:23;;;;;;;7.13;6.47;;;16.40;95.60;;;;;;5058552;28;20491;-82
2023/07/29 01:21:51;;;;;;;8.03;7.43;;;16.30;95.70;;;;;;5061354;28;20456;-81
2023/07/29 01:24:19;;;;;;;7.30;6.70;;;16.30;95.70;;;;;;5045620;28;20493;-81
2023/07/29 01:26:46;;;;;;;6.70;6.20;;;16.30;95.80;;;;;;5023657;28;20416;-78
2023/07/29 01:29:13;;;;;;;8.47;7.80;;;16.20;95.80;;;;;;5036710;28;20446;-79
2023/07/29 01:31:44;;;;;;;8.67;7.97;;;16.30;95.80;;;;;;5038491;28;20493;-78
2023/07/29 01:34:29;;;;;;;8.00;7.40;;;16.20;95.90;;;;;;5038697;28;20453;-78
2023/07/29 01:36:59;;;;;;;6.90;6.40;;;16.20;96.20;;;;;;5038261;28;20434;-78
2023/07/29 01:39:32;;;;;;;8.07;7.40;;;16.20;96.00;;;;;;5038668;28;20485;-78
2023/07/29 01:42:01;;;;;;;7.53;6.93;;;16.20;96.00;;;;;;5020700;28;20484;-76
2023/07/29 01:44:29;;;;;;;8.40;7.83;;;16.10;96.10;;;;;;5019741;28;21075;-76
2023/07/29 01:46:59;;;;;;;8.73;7.93;;;16.10;96.10;;;;;;5037060;28;20444;-78
2023/07/29 01:49:27;;;;;;;9.40;7.80;;;16.10;96.20;;;;;;5038208;28;20509;-78
2023/07/29 01:51:54;;;;;;;7.77;7.17;;;16.10;96.60;;;;;;5023844;28;20517;-78
2023/07/29 01:54:22;;;;;;;7.13;6.63;;;16.00;96.30;;;;;;5038065;28;20541;-79
2023/07/29 01:56:51;;;;;;;9.03;8.20;;;15.90;96.30;;;;;;5037680;28;20612;-77
2023/07/29 01:59:22;;;;;;;8.70;8.00;;;15.80;96.50;;;;;;5021674;28;20448;-75
2023/07/29 02:01:48;;;;;;;8.70;7.90;;;15.90;96.60;;;;;;5029388;28;20810;-78
2023/07/29 02:04:16;;;;;;;8.10;7.40;;;16.00;96.50;;;;;;5023876;28;20455;-79
2023/07/29 02:06:43;;;;;;;9.67;8.87;;;15.90;96.50;;;;;;5042802;28;20477;-79
2023/07/29 02:09:10;;;;;;;8.60;8.00;;;15.90;96.80;;;;;;5040807;28;20501;-79
2023/07/29 02:11:37;;;;;;;9.63;8.93;;;15.90;96.80;;;;;;5040912;28;20497;-80
2023/07/29 02:14:04;;;;;;;10.20;9.50;;;16.00;97.00;;;;;;5026771;28;20476;-78
2023/07/29 02:16:32;;;;;;;8.83;8.13;;;16.10;96.90;;;;;;5035457;28;20446;-78
2023/07/29 02:18:59;;;;;;;9.43;8.83;;;16.00;96.80;;;;;;5041990;28;20441;-78
2023/07/29 02:21:27;;;;;;;8.70;8.10;;;15.90;96.90;;;;;;5047281;28;20449;-77
2023/07/29 02:23:54;;;;;;;8.80;8.10;;;15.90;96.80;;;;;;5037775;28;20500;-78
2023/07/29 02:26:24;;;;;;;9.30;8.60;;;15.90;96.90;;;;;;5037276;28;20431;-80
2023/07/29 02:28:54;;;;;;;9.20;8.50;;;16.10;97.10;;;;;;5012521;28;20485;-79
2023/07/29 02:31:23;;;;;;;9.73;8.73;;;15.90;97.10;;;;;;5021811;28;20540;-79
2023/07/29 02:33:51;;;;;;;9.57;8.73;;;15.80;97.10;;;;;;5037358;28;21031;-78
2023/07/29 02:36:19;;;;;;;9.90;8.93;;;15.90;97.00;;;;;;5024599;28;20505;-79
2023/07/29 02:38:48;;;;;;;8.83;8.13;;;15.90;97.30;;;;;;5028690;28;20446;-79
2023/07/29 02:41:16;;;;;;;8.70;7.90;;;15.90;97.20;;;;;;5035379;28;20470;-79
2023/07/29 02:43:47;;;;;;;8.03;7.33;;;15.90;97.30;;;;;;5021546;28;20479;-78
2023/07/29 02:46:14;;;;;;;8.90;8.10;;;15.80;97.30;;;;;;5037584;28;20473;-79
2023/07/29 02:48:42;;;;;;;8.57;7.90;;;15.90;97.30;;;;;;5037887;28;20416;-79
2023/07/29 02:51:09;;;;;;;8.90;8.10;;;15.80;97.30;;;;;;5036821;28;21121;-77
2023/07/29 02:53:36;;;;;;;10.43;9.63;;;15.90;97.40;;;;;;5033275;28;20525;-77
2023/07/29 02:56:08;;;;;;;8.73;8.00;;;15.70;97.30;;;;;;5037196;28;20446;-79
2023/07/29 02:58:37;;;;;;;7.90;7.30;;;15.80;97.20;;;;;;5028272;28;20450;-77
2023/07/29 03:01:05;;;;;;;8.40;7.70;;;15.90;97.30;;;;;;5033541;28;20449;-79
2023/07/29 03:03:32;;;;;;;8.27;7.57;;;15.80;97.20;;;;;;5036351;28;20478;-78
2023/07/29 03:06:02;;;;;;;8.53;7.93;;;15.80;97.20;;;;;;5036542;28;20445;-77
2023/07/29 03:08:31;;;;;;;9.20;8.30;;;15.80;97.30;;;;;;5035119;28;20631;-77
2023/07/29 03:10:58;;;;;;;8.83;8.00;;;15.90;97.00;;;;;;5015594;28;21060;-77
2023/07/29 03:13:28;;;;;;;8.47;7.87;;;15.90;97.00;;;;;;5032059;28;20446;-76
2023/07/29 03:16:04;;;;;;;8.67;8.00;;;16.00;96.80;;;;;;5019465;28;20446;-80
2023/07/29 03:18:31;;;;;;;8.43;7.77;;;16.00;96.70;;;;;;5034008;28;20445;-78
2023/07/29 03:20:59;;;;;;;8.40;7.80;;;16.00;96.60;;;;;;5035556;28;20461;-78
2023/07/29 03:23:27;;;;;;;8.60;7.70;;;16.00;96.60;;;;;;5036070;28;20452;-80
2023/07/29 03:25:58;;;;;;;7.20;6.70;;;16.10;96.40;;;;;;5010764;28;20710;-79
2023/07/29 03:28:27;;;;;;;7.50;7.00;;;16.10;96.30;;;;;;5036819;28;20494;-78
2023/07/29 03:30:58;;;;;;;7.47;6.97;;;16.10;96.20;;;;;;5027516;28;20463;-77
2023/07/29 03:33:26;;;;;;;7.27;6.77;;;16.10;96.30;;;;;;5038861;28;20438;-76
2023/07/29 03:35:55;;;;;;;8.23;7.50;;;16.30;96.30;;;;;;5034306;28;20438;-77
2023/07/29 03:38:25;;;;;;;8.20;6.73;;;16.10;96.10;;;;;;5043240;28;20448;-79
2023/07/29 03:40:53;;;;;;;7.40;6.90;;;16.30;96.10;;;;;;5038968;28;20469;-77
2023/07/29 03:43:20;;;;;;;7.37;6.77;;;16.30;95.90;;;;;;5036175;28;20563;-79
2023/07/29 03:45:47;;;;;;;9.77;7.27;;;16.50;95.90;;;;;;5036930;28;20469;-77
2023/07/29 03:48:14;;;;;;;12.10;8.43;;;16.40;95.90;;;;;;5043330;28;20418;-78
2023/07/29 03:50:41;;;;;;;7.90;7.30;;;16.50;95.80;;;;;;5034932;28;20545;-78
2023/07/29 03:53:09;;;;;;;9.13;5.83;;;16.50;95.50;;;;;;5020824;28;20491;-78
2023/07/29 03:55:37;;;;;;;7.30;6.70;;;16.70;95.60;;;;;;5035461;28;20509;-78
2023/07/29 03:58:03;;;;;;;6.70;6.20;;;16.60;95.40;;;;;;5018569;28;20492;-80
2023/07/29 04:00:31;;;;;;;7.50;6.70;;;16.50;95.20;;;;;;5034933;28;20706;-78
2023/07/29 04:02:58;;;;;;;6.50;5.90;;;16.50;95.30;;;;;;5018644;28;20814;-78
2023/07/29 04:05:25;;;;;;;7.20;6.63;;;16.50;95.40;;;;;;5035357;28;20464;-79
2023/07/29 04:07:53;;;;;;;7.17;6.50;;;16.60;95.30;;;;;;5019444;28;20517;-77
2023/07/29 04:10:20;;;;;;;6.33;5.93;;;16.60;95.30;;;;;;5044186;28;20508;-77
2023/07/29 04:12:47;;;;;;;7.10;6.40;;;16.50;95.30;;;;;;5035619;28;20511;-79
2023/07/29 04:15:14;;;;;;;6.87;6.27;;;16.70;95.10;;;;;;5035537;28;20449;-79
2023/07/29 04:17:42;;;;;;;6.17;5.77;;;16.80;94.90;;;;;;5039959;28;20450;-77
2023/07/29 04:20:09;;;;;;;7.00;6.50;;;16.90;94.50;;;;;;5033345;28;20856;-76
2023/07/29 04:22:37;;;;;;;6.00;5.60;;;17.00;94.30;;;;;;5016947;28;20670;-79
2023/07/29 04:25:04;;;;;;;6.30;5.80;;;17.20;94.10;;;;;;5018383;28;20451;-78
2023/07/29 04:27:34;;;;;;;7.10;6.40;;;17.30;93.70;;;;;;5042254;28;20781;-79
2023/07/29 04:30:02;;;;;;;6.13;5.63;;;17.50;93.50;;;;;;5027661;28;20546;-77
2023/07/29 04:32:29;;;;;;;5.83;5.43;;;17.40;93.30;;;;;;5039066;28;20489;-77
2023/07/29 04:34:56;;;;;;;5.27;4.87;;;17.50;93.10;;;;;;5040246;28;20464;-78
2023/07/29 04:37:24;;;;;;;6.67;6.07;;;17.70;92.80;;;;;;5037528;28;20714;-79
2023/07/29 04:39:51;;;;;;;8.90;5.67;;;17.70;92.50;;;;;;5022965;28;20667;-78
2023/07/29 04:42:19;;;;;;;5.77;5.10;;;17.80;92.20;;;;;;5020310;28;20680;-78
2023/07/29 04:44:47;;;;;;;4.67;4.27;;;17.80;92.00;;;;;;5045916;28;20514;-78
2023/07/29 04:47:15;;;;;;;7.00;5.40;;;18.00;92.00;;;;;;5072728;28;20441;-80
2023/07/29 04:49:42;;;;;;;7.20;4.90;;;18.10;91.70;;;;;;5048496;28;20521;-80
2023/07/29 04:52:09;;;;;;;5.77;5.27;;;18.10;91.60;;;;;;5035900;28;20488;-76
2023/07/29 04:54:36;;;;;;;5.23;4.73;;;18.20;90.70;;;;;;5037559;28;20516;-77
2023/07/29 04:57:05;;;;;;;4.90;4.50;;;18.40;90.50;;;;;;5043262;28;20501;-76
2023/07/29 04:59:32;;;;;;;6.17;5.67;;;18.50;90.20;;;;;;5042178;28;20441;-78
2023/07/29 05:01:58;;;;;;;5.07;4.67;;;18.60;90.20;;;;;;5044358;28;20434;-79
2023/07/29 05:04:26;;;;;;;5.50;4.87;;;18.80;90.10;;;;;;5030292;28;20446;-77
2023/07/29 05:06:53;;;;;;;6.00;4.33;;;19.00;89.10;;;;;;5022213;28;20433;-80
2023/07/29 05:09:20;;;;;;;4.80;4.40;;;19.10;87.50;;;;;;5031269;28;20528;-78
2023/07/29 05:11:48;;;;;;;7.50;6.30;;;19.30;87.20;;;;;;5040299;28;20492;-78
2023/07/29 05:14:17;;;;;;;4.97;4.27;;;19.40;86.80;;;;;;5037842;28;20668;-78
2023/07/29 05:16:44;;;;;;;4.80;4.40;;;19.70;85.90;;;;;;5037527;28;20440;-77
2023/07/29 05:19:12;;;;;;;7.73;4.73;;;20.00;84.50;;;;;;5037221;28;20440;-79
2023/07/29 05:21:39;;;;;;;6.03;4.20;;;20.30;82.90;;;;;;5030049;28;20459;-77
2023/07/29 05:24:06;;;;;;;5.70;4.80;;;20.30;82.60;;;;;;5037087;28;20497;-76
2023/07/29 05:26:33;;;;;;;4.20;3.80;;;20.40;82.00;;;;;;5036551;28;20425;-77
2023/07/29 05:29:01;;;;;;;4.63;4.00;;;20.70;81.30;;;;;;5037008;28;20427;-77
2023/07/29 05:31:28;;;;;;;4.00;3.60;;;20.90;80.90;;;;;;5018994;28;20495;-76
2023/07/29 05:33:56;;;;;;;5.30;3.90;;;21.20;80.70;;;;;;5036923;28;20420;-75
2023/07/29 05:36:23;;;;;;;7.23;3.70;;;21.50;79.90;;;;;;5036830;28;20442;-78
2023/07/29 05:38:52;;;;;;;3.67;3.10;;;21.70;78.60;;;;;;5037728;28;20860;-76
2023/07/29 05:41:19;;;;;;;4.33;3.80;;;21.80;78.30;;;;;;5034838;28;20471;-77
2023/07/29 05:43:47;;;;;;;5.13;3.20;;;21.90;78.50;;;;;;5037226;28;20537;-77
2023/07/29 05:46:14;;;;;;;3.87;3.53;;;21.90;77.70;;;;;;5039006;28;20518;-77
2023/07/29 05:48:41;;;;;;;3.83;3.43;;;22.10;77.70;;;;;;5037476;28;20443;-76
2023/07/29 05:51:08;;;;;;;6.97;3.57;;;22.20;77.30;;;;;;5045739;28;20472;-76
2023/07/29 05:53:36;;;;;;;3.60;3.27;;;22.40;76.20;;;;;;5040062;28;20995;-76
2023/07/29 05:56:03;;;;;;;3.37;3.03;;;22.60;75.80;;;;;;5051994;28;20484;-79
2023/07/29 05:58:31;;;;;;;4.10;3.30;;;22.50;75.10;;;;;;5036219;28;20459;-76
2023/07/29 06:00:58;;;;;;;6.03;3.40;;;22.30;75.80;;;;;;5047870;28;20462;-77
2023/07/29 06:03:25;;;;;;;5.20;3.53;;;22.30;76.50;;;;;;5037512;28;20408;-76
2023/07/29 06:05:54;;;;;;;4.87;3.20;;;22.40;76.00;;;;;;5033578;28;20440;-76
2023/07/29 06:08:21;;;;;;;3.30;2.43;;;22.60;75.80;;;;;;5042329;28;20484;-76
2023/07/29 06:10:48;;;;;;;3.20;2.90;;;23.00;75.10;;;;;;5036648;28;20839;-76
2023/07/29 06:13:16;;;;;;;3.70;3.23;;;23.10;74.50;;;;;;5036402;28;20424;-77
2023/07/29 06:15:43;;;;;;;4.77;3.23;;;23.10;74.50;;;;;;5018748;28;20452;-78
2023/07/29 06:18:12;;;;;;;6.07;3.50;;;23.20;73.70;;;;;;5036353;28;20488;-75
2023/07/29 06:20:39;;;;;;;5.37;2.83;;;23.40;72.80;;;;;;5017846;28;20500;-75
2023/07/29 06:23:06;;;;;;;3.93;3.00;;;23.60;72.00;;;;;;5036714;28;20467;-75
2023/07/29 06:25:33;;;;;;;2.80;2.60;;;24.10;70.80;;;;;;5036592;28;20449;-76
2023/07/29 06:28:01;;;;;;;3.20;2.90;;;24.40;69.10;;;;;;5039694;28;20633;-76
2023/07/29 06:30:28;;;;;;;2.97;2.77;;;24.60;68.60;;;;;;5037063;28;20420;-76
2023/07/29 06:32:55;;;;;;;5.03;2.53;;;24.90;67.20;;;;;;5036022;28;20456;-75
2023/07/29 06:35:22;;;;;;;3.10;2.77;;;25.10;66.30;;;;;;5035438;28;20420;-77
2023/07/29 06:37:49;;;;;;;3.03;2.83;;;25.30;66.10;;;;;;5035925;28;20444;-76
2023/07/29 06:40:16;;;;;;;3.37;2.50;;;25.40;65.80;;;;;;5035798;28;20452;-76
2023/07/29 06:42:43;;;;;;;2.30;2.20;;;25.50;64.90;;;;;;5035478;28;20435;-76
2023/07/29 06:45:10;;;;;;;3.27;3.07;;;25.70;64.50;;;;;;5035743;28;21003;-75
2023/07/29 06:47:38;;;;;;;2.17;2.00;;;26.00;63.80;;;;;;5035528;28;20483;-76
2023/07/29 06:50:05;;;;;;;3.03;2.50;;;26.40;62.80;;;;;;5036140;28;20467;-76
2023/07/29 06:52:33;;;;;;;4.67;3.03;;;26.60;60.80;;;;;;5035263;28;20460;-76
2023/07/29 06:55:00;;;;;;;2.70;2.50;;;27.00;60.20;;;;;;5036382;28;20699;-77
2023/07/29 06:57:27;;;;;;;2.47;2.37;;;27.20;59.10;;;;;;5036333;28;20420;-75
2023/07/29 06:59:54;;;;;;;2.60;2.40;;;27.30;59.00;;;;;;5035252;28;20464;-77
2023/07/29 07:02:20;;;;;;;2.40;2.17;;;27.50;58.30;;;;;;5036529;28;20430;-77
2023/07/29 07:04:47;;;;;;;2.83;2.60;;;27.70;58.40;;;;;;5036488;28;20417;-77
2023/07/29 07:07:15;;;;;;;2.63;2.43;;;28.10;57.20;;;;;;5031744;28;20684;-77
2023/07/29 07:09:43;;;;;;;3.00;2.67;;;28.20;57.10;;;;;;5035923;28;20513;-76
2023/07/29 07:12:09;;;;;;;1.97;1.87;;;28.50;55.70;;;;;;5035902;28;20968;-77
2023/07/29 07:14:38;;;;;;;2.57;2.37;;;29.00;54.70;;;;;;5035056;28;20453;-76
2023/07/29 07:17:06;;;;;;;2.67;2.47;;;29.10;54.20;;;;;;5038816;28;20536;-77
2023/07/29 07:19:32;;;;;;;2.70;2.00;;;29.30;53.80;;;;;;5044161;28;20473;-76
2023/07/29 07:21:59;;;;;;;2.30;2.10;;;29.40;53.40;;;;;;5035097;28;20513;-76
2023/07/29 07:24:26;;;;;;;2.50;2.33;;;29.70;52.20;;;;;;5027024;28;20473;-77
2023/07/29 07:26:53;;;;;;;2.90;2.07;;;30.20;51.80;;;;;;5033973;28;20513;-77
2023/07/29 07:29:20;;;;;;;2.70;2.50;;;30.70;50.30;;;;;;5017359;28;20541;-77
2023/07/29 07:31:53;;;;;;;2.50;2.17;;;31.10;49.50;;;;;;5019289;28;20592;-78
2023/07/29 07:34:20;;;;;;;3.17;2.17;;;31.70;47.50;;;;;;5035571;28;20509;-76
2023/07/29 07:36:48;;;;;;;2.43;2.23;;;32.20;46.70;;;;;;5015453;28;20442;-79
2023/07/29 07:39:15;;;;;;;2.40;2.30;;;32.40;46.70;;;;;;5029228;28;20485;-79
2023/07/29 07:41:42;;;;;;;2.90;2.70;;;33.00;44.80;;;;;;5034113;28;20504;-77
2023/07/29 07:44:09;;;;;;;3.50;2.63;;;33.40;44.00;;;;;;5034733;28;20473;-77
2023/07/29 07:46:36;;;;;;;3.17;2.87;;;34.00;42.80;;;;;;5031752;28;20592;-77
2023/07/29 07:49:03;;;;;;;2.33;2.23;;;34.30;42.10;;;;;;5032336;28;20642;-76
2023/07/29 07:51:30;;;;;;;3.30;3.00;;;34.20;43.80;;;;;;5030588;28;20544;-77
2023/07/29 07:53:57;;;;;;;2.80;2.30;;;33.80;42.80;;;;;;5029440;28;20528;-77
2023/07/29 07:56:24;;;;;;;2.93;2.73;;;34.00;41.60;;;;;;5009711;28;20555;-77
2023/07/29 07:58:51;;;;;;;3.40;3.10;;;34.30;41.50;;;;;;5029499;28;20526;-76
2023/07/29 08:01:18;;;;;;;2.80;2.50;;;34.90;40.30;;;;;;5029480;28;20453;-76
2023/07/29 08:03:45;;;;;;;3.17;2.87;;;35.20;40.60;;;;;;5033045;28;20529;-78
2023/07/29 08:06:11;;;;;;;3.10;2.60;;;34.50;40.40;;;;;;5029670;28;20469;-78
2023/07/29 08:08:38;;;;;;;3.00;2.67;;;33.30;42.50;;;;;;5027832;28;20459;-77
2023/07/29 08:11:05;;;;;;;2.90;2.70;;;33.70;41.70;;;;;;5031798;28;20653;-79
2023/07/29 08:13:32;;;;;;;3.37;3.10;;;34.00;43.00;;;;;;5034780;28;20473;-78
2023/07/29 08:15:59;;;;;;;4.33;2.70;;;34.40;41.00;;;;;;5034502;28;20981;-80
2023/07/29 08:18:26;;;;;;;2.77;2.57;;;33.60;42.20;;;;;;5030304;28;20446;-79
2023/07/29 08:21:03;;;;;;;2.60;2.40;;;31.90;45.90;;;;;;5034051;28;20477;-77
2023/07/29 08:23:31;;;;;;;2.63;2.43;;;31.30;47.40;;;;;;5034197;28;20766;-77
2023/07/29 08:26:04;;;;;;;2.63;2.43;;;32.20;45.80;;;;;;5010874;28;20458;-77
2023/07/29 08:28:32;;;;;;;3.23;2.90;;;32.40;44.40;;;;;;5033102;28;20442;-77
2023/07/29 08:30:59;;;;;;;4.10;2.60;;;32.60;44.70;;;;;;5015694;28;20533;-78
2023/07/29 08:33:27;;;;;;;4.10;2.67;;;33.40;43.50;;;;;;5005084;28;20565;-76
2023/07/29 08:35:54;;;;;;;2.43;2.33;;;34.20;41.90;;;;;;5031212;28;20474;-76
2023/07/29 08:38:21;;;;;;;2.67;2.40;;;34.80;40.80;;;;;;5031322;28;20514;-76
2023/07/29 08:41:18;;;;;;;2.70;2.60;;;36.00;39.90;;;;;;5033860;28;20469;-77
2023/07/29 08:43:52;;;;;;;3.80;2.40;;;36.00;37.60;;;;;;5033009;28;20472;-78
2023/07/29 08:46:20;;;;;;;2.80;2.60;;;35.80;40.30;;;;;;5033478;28;20449;-77
2023/07/29 08:48:47;;;;;;;2.70;2.50;;;35.30;40.70;;;;;;5033295;28;20442;-77
2023/07/29 08:51:16;;;;;;;2.20;2.10;;;34.50;41.90;;;;;;5034347;28;20441;-77
2023/07/29 08:53:43;;;;;;;2.30;2.20;;;33.00;42.60;;;;;;5028399;28;20695;-77
2023/07/29 08:56:10;;;;;;;5.00;2.30;;;31.60;45.00;;;;;;5027700;28;20521;-79
2023/07/29 08:58:39;;;;;;;2.10;2.00;;;30.60;47.90;;;;;;5015573;28;20450;-75
2023/07/29 09:01:06;;;;;;;2.87;2.63;;;30.70;48.70;;;;;;5032432;28;20550;-76
2023/07/29 09:03:33;;;;;;;2.50;2.30;;;31.10;47.20;;;;;;5034233;28;20449;-79
2023/07/29 09:06:02;;;;;;;2.47;2.07;;;32.00;45.50;;;;;;5034326;28;20489;-77
2023/07/29 09:08:29;;;;;;;2.17;1.90;;;32.40;44.20;;;;;;5025236;28;20468;-76
2023/07/29 09:10:56;;;;;;;3.30;2.40;;;32.00;45.30;;;;;;5030776;28;20509;-76
2023/07/29 09:13:25;;;;;;;1.93;1.83;;;31.80;46.20;;;;;;5028702;28;20577;-77
2023/07/29 09:15:56;;;;;;;2.10;2.00;;;32.30;45.80;;;;;;5038190;28;20502;-76
2023/07/29 09:18:25;;;;;;;2.40;2.20;;;32.40;44.60;;;;;;5036140;28;20473;-76
2023/07/29 09:20:53;;;;;;;3.30;2.40;;;32.70;44.20;;;;;;5018667;28;20532;-77
2023/07/29 09:23:20;;;;;;;2.40;2.30;;;31.70;45.80;;;;;;5037296;28;20509;-78
2023/07/29 09:25:47;;;;;;;3.40;2.30;;;31.00;48.70;;;;;;5037364;28;20470;-76
2023/07/29 09:28:16;;;;;;;3.93;2.10;;;31.50;48.80;;;;;;5037826;28;20473;-79
2023/07/29 09:30:45;;;;;;;3.10;2.90;;;32.20;45.50;;;;;;5037260;28;20438;-76
2023/07/29 09:33:13;;;;;;;2.00;1.90;;;33.00;43.70;;;;;;5037089;28;20495;-78
2023/07/29 09:35:41;;;;;;;2.00;1.90;;;32.30;43.80;;;;;;5030685;28;20438;-76
2023/07/29 09:38:15;;;;;;;2.60;2.40;;;31.80;44.40;;;;;;5041274;28;20476;-76
2023/07/29 09:40:44;;;;;;;2.57;2.37;;;31.90;45.20;;;;;;5030385;28;20505;-75
2023/07/29 09:43:12;;;;;;;2.70;2.50;;;32.20;44.40;;;;;;5037288;28;20468;-77
2023/07/29 09:45:40;;;;;;;2.20;2.10;;;32.30;45.10;;;;;;5025981;28;20665;-76
2023/07/29 09:48:10;;;;;;;3.70;2.40;;;31.60;45.00;;;;;;5035722;28;20498;-78
2023/07/29 09:50:37;;;;;;;3.87;2.23;;;31.80;45.80;;;;;;5036054;28;20434;-78
2023/07/29 09:53:06;;;;;;;4.30;2.30;;;31.90;45.80;;;;;;5036660;28;20516;-78
2023/07/29 09:55:34;;;;;;;2.90;2.60;;;32.30;46.30;;;;;;5019000;28;20480;-76
2023/07/29 09:58:03;;;;;;;3.03;2.73;;;31.70;45.60;;;;;;5019394;28;20433;-76
2023/07/29 10:00:32;;;;;;;2.37;2.20;;;31.40;46.50;;;;;;5036592;28;20412;-78
2023/07/29 10:03:00;;;;;;;2.50;2.40;;;31.40;47.10;;;;;;5037447;28;20525;-76
2023/07/29 10:05:28;;;;;;;2.50;2.40;;;31.10;46.00;;;;;;5036854;28;20449;-76
2023/07/29 10:07:56;;;;;;;2.57;2.37;;;30.30;47.90;;;;;;5037365;28;20500;-76
2023/07/29 10:10:23;;;;;;;5.70;4.30;;;30.80;48.60;;;;;;5036980;28;20437;-78
2023/07/29 10:12:51;;;;;;;3.07;2.80;;;31.10;47.30;;;;;;5035348;28;20596;-76
2023/07/29 10:15:18;;;;;;;3.77;2.90;;;31.10;46.70;;;;;;5037064;28;20856;-77
2023/07/29 10:17:46;;;;;;;2.93;2.73;;;30.80;48.20;;;;;;5035859;28;20698;-77
2023/07/29 10:20:16;;;;;;;2.90;2.70;;;31.10;46.90;;;;;;5035976;28;20442;-76
2023/07/29 10:22:47;;;;;;;6.30;3.90;;;31.10;47.10;;;;;;5032910;28;20822;-76
2023/07/29 10:25:17;;;;;;;2.53;2.43;;;31.30;48.10;;;;;;5036604;28;20792;-77
2023/07/29 10:27:57;;;;;;;3.33;2.93;;;30.70;46.60;;;;;;5036667;28;20785;-78
2023/07/29 10:30:25;;;;;;;2.90;2.70;;;31.10;46.90;;;;;;5044832;28;20544;-76
2023/07/29 10:32:53;;;;;;;2.97;2.80;;;30.70;47.20;;;;;;5040521;28;20669;-75
2023/07/29 10:35:20;;;;;;;3.10;2.90;;;30.70;47.40;;;;;;5051426;28;20461;-78
2023/07/29 10:37:50;;;;;;;4.93;2.93;;;31.10;47.30;;;;;;5053161;28;20445;-77
2023/07/29 10:40:17;;;;;;;3.43;3.23;;;31.00;47.50;;;;;;5056097;28;20474;-78
2023/07/29 10:43:11;;;;;;;4.20;3.87;;;30.70;47.50;;;;;;5031470;28;20430;-76
2023/07/29 10:45:40;;;;;;;6.70;3.93;;;30.60;48.20;;;;;;5016179;28;20644;-78
2023/07/29 10:48:34;;;;;;;4.20;3.90;;;30.60;47.50;;;;;;5037018;28;20445;-77
2023/07/29 10:51:27;;;;;;;4.17;3.63;;;31.20;47.10;;;;;;5035050;28;20492;-76
2023/07/29 10:54:00;;;;;;;3.50;3.30;;;30.90;47.30;;;;;;5033901;28;20497;-76
2023/07/29 10:56:32;;;;;;;3.50;3.30;;;30.60;46.50;;;;;;5035289;28;20505;-75
2023/07/29 10:59:22;;;;;;;3.40;3.20;;;30.30;48.00;;;;;;5033430;28;20585;-77
2023/07/29 11:01:56;;;;;;;4.10;3.80;;;30.20;47.90;;;;;;5032383;28;20690;-77
2023/07/29 11:04:24;;;;;;;3.37;3.17;;;30.60;48.10;;;;;;5036030;28;20488;-75
2023/07/29 11:07:03;;;;;;;4.07;3.77;;;30.20;48.10;;;;;;5035315;28;20434;-77
2023/07/29 11:09:51;;;;;;;4.80;4.40;;;30.10;49.10;;;;;;5028852;28;20827;-77
2023/07/29 11:12:45;;;;;;;4.03;3.73;;;30.60;47.70;;;;;;5034915;28;20896;-79
2023/07/29 11:15:24;;;;;;;4.50;4.20;;;30.80;46.80;;;;;;5028948;28;20450;-82
2023/07/29 11:17:55;;;;;;;4.27;3.97;;;30.80;46.80;;;;;;5029836;28;20823;-77
2023/07/29 11:20:25;;;;;;;3.70;3.50;;;30.90;46.80;;;;;;5034087;28;21000;-77
2023/07/29 11:22:57;;;;;;;5.47;4.60;;;30.70;46.70;;;;;;5033831;28;20464;-77
2023/07/29 11:25:26;;;;;;;3.80;3.43;;;30.50;47.50;;;;;;5034957;28;20449;-77
2023/07/29 11:27:54;;;;;;;3.70;3.40;;;30.10;47.30;;;;;;5036748;28;20730;-75
2023/07/29 11:30:29;;;;;;;3.53;3.23;;;29.90;48.10;;;;;;5035260;28;20448;-77
2023/07/29 11:32:57;;;;;;;3.67;3.37;;;30.20;48.90;;;;;;5034607;28;20574;-78
2023/07/29 11:35:24;;;;;;;3.60;3.40;;;30.40;47.50;;;;;;5033609;28;20493;-76
2023/07/29 11:37:53;;;;;;;3.97;3.67;;;30.30;47.20;;;;;;5033733;28;20513;-77
2023/07/29 11:40:22;;;;;;;3.30;3.10;;;30.10;47.50;;;;;;5025607;28;20431;-75
2023/07/29 11:42:51;;;;;;;3.93;3.63;;;29.80;48.30;;;;;;5030930;28;20450;-77
2023/07/29 11:45:19;;;;;;;2.80;2.60;;;29.80;48.50;;;;;;5035100;28;20443;-77
2023/07/29 11:47:49;;;;;;;21.23;4.83;;;29.90;48.90;;;;;;5015266;28;20850;-83
2023/07/29 11:50:16;;;;;;;3.27;3.07;;;30.30;47.80;;;;;;5034739;28;20469;-76
2023/07/29 11:52:45;;;;;;;2.90;2.80;;;30.10;46.50;;;;;;5037162;28;20497;-77
2023/07/29 11:55:14;;;;;;;3.40;3.07;;;30.10;47.50;;;;;;5029246;28;20411;-78
2023/07/29 11:57:43;;;;;;;3.20;3.00;;;30.20;46.40;;;;;;5034703;28;20546;-77
2023/07/29 12:00:11;;;;;;;2.60;2.30;;;30.60;47.10;;;;;;5034515;28;20442;-80
2023/07/29 12:02:41;;;;;;;2.73;2.53;;;30.40;45.50;;;;;;5031815;28;20468;-76
2023/07/29 12:05:10;;;;;;;2.80;2.47;;;30.60;45.10;;;;;;5031519;28;20445;-77
2023/07/29 12:07:43;;;;;;;5.00;2.27;;;30.60;45.40;;;;;;5034422;28;20537;-78
2023/07/29 12:10:11;;;;;;;2.40;2.20;;;30.30;44.90;;;;;;5034032;28;20598;-78
2023/07/29 12:12:46;;;;;;;2.07;1.93;;;30.10;46.20;;;;;;5034416;28;20718;-78
2023/07/29 12:15:13;;;;;;;1.73;1.63;;;30.10;45.50;;;;;;5032706;28;20515;-77
2023/07/29 12:17:42;;;;;;;3.23;2.27;;;29.90;45.30;;;;;;5017198;28;20583;-79
2023/07/29 12:20:10;;;;;;;1.80;1.70;;;30.00;45.60;;;;;;5034380;28;20428;-77
2023/07/29 12:22:37;;;;;;;3.50;2.13;;;30.00;44.40;;;;;;5035189;28;20453;-77
2023/07/29 12:25:04;;;;;;;2.20;2.00;;;29.80;44.50;;;;;;5035024;28;20448;-77
2023/07/29 12:27:32;;;;;;;2.30;2.20;;;29.70;44.70;;;;;;5033763;28;20529;-79
2023/07/29 12:30:03;;;;;;;2.83;2.60;;;30.00;44.70;;;;;;5032098;28;20828;-80
2023/07/29 12:32:30;;;;;;;8.57;2.17;;;30.20;44.20;;;;;;5034553;28;20424;-78
2023/07/29 12:34:57;;;;;;;1.97;1.87;;;30.10;45.20;;;;;;5034333;28;20741;-78
2023/07/29 12:37:32;;;;;;;2.43;2.33;;;30.20;44.60;;;;;;5028073;28;20441;-82
2023/07/29 12:39:59;;;;;;;2.37;2.17;;;30.30;45.00;;;;;;5034203;28;20433;-83
2023/07/29 12:42:26;;;;;;;2.83;2.20;;;30.20;44.70;;;;;;5035775;28;20448;-77
2023/07/29 12:44:53;;;;;;;2.57;2.37;;;29.80;44.90;;;;;;5035273;28;20445;-76
2023/07/29 12:47:20;;;;;;;2.10;2.00;;;29.50;45.60;;;;;;5032598;28;20508;-77
2023/07/29 12:49:47;;;;;;;2.40;2.13;;;29.70;46.00;;;;;;5016366;28;20717;-79
2023/07/29 12:52:14;;;;;;;2.30;2.10;;;29.90;46.30;;;;;;5035585;28;20573;-80
2023/07/29 12:54:44;;;;;;;2.40;2.30;;;30.50;45.10;;;;;;5022404;28;20473;-75